Flight Track Log - Related Links

Times and Time Zones

All times are in EDT time to prevent confusion due to time zone crossing. See the N1218P flight status page for this flight to view local times or setup timezone preferences in your user account.

Time Position Orientation Groundspeed Altitude Reporting Facility
EDT Latitude Longitude Course Direction KTS MPH feet Rate Location/Type
Fri 04:52:00 PM 39.7000 -86.3000 360° North 78 90 1,200  Level Indianapolis TRACON
Fri 04:52:30 PM 39.7000 -86.3000 163° South 89 102 1,500 563 Climbing Indianapolis TRACON
Fri 04:53:04 PM 39.6850 -86.2942 163° South 105 121 1,800 500 Climbing Indianapolis Center
Fri 04:54:06 PM 39.6628 -86.2631 133° Southeast 115 132 2,300 387 Climbing Indianapolis Center
Fri 04:55:08 PM 39.6406 -86.2300 131° Southeast 119 137 2,600 195 Climbing Indianapolis Center
Fri 04:56:09 PM 39.6244 -86.1828 114° Southeast 136 157 2,700 439 Climbing Indianapolis Center
Fri 04:57:11 PM 39.6153 -86.1300 103° East 132 152 3,500 726 Climbing Indianapolis Center
Fri 04:58:13 PM 39.6197 -86.0878 82° East 125 144 4,200 629 Climbing Indianapolis Center
Fri 04:59:15 PM 39.6247 -86.0467 81° East 119 137 4,800 484 Climbing Indianapolis Center
Fri 05:00:17 PM 39.6308 -86.0028 80° East 120 138 5,200 339 Climbing Indianapolis Center
Fri 05:01:19 PM 39.6397 -85.9558 76° East 127 146 5,500 194 Climbing Indianapolis Center
Fri 05:02:21 PM 39.6458 -85.9058 81° East 135 155 5,600  Climbing Indianapolis Center
Fri 05:03:23 PM 39.6514 -85.8417 84° East 143 165 5,500 -48 Descending Indianapolis Center
Fri 05:04:25 PM 39.6539 -85.7878 87° East 147 169 5,500  Level Indianapolis Center
Fri 05:05:26 PM 39.6578 -85.7339 85° East 149 171 5,500 49 Level Indianapolis Center
Fri 05:06:28 PM 39.6614 -85.6811 85° East 149 171 5,600 48 Climbing Indianapolis Center
Fri 05:07:30 PM 39.6642 -85.6256 86° East 151 174 5,600  Level Indianapolis Center
Fri 05:08:32 PM 39.6658 -85.5731 88° East 150 173 5,600  Level Indianapolis Center
Fri 05:09:34 PM 39.6689 -85.5072 87° East 151 174 5,600 -48 Level Indianapolis Center
Fri 05:10:36 PM 39.6711 -85.4522 87° East 152 175 5,500  Descending Indianapolis Center
Fri 05:11:38 PM 39.6736 -85.3975 87° East 152 175 5,600  Climbing Indianapolis Center
Fri 05:12:45 PM 39.6731 -85.3328 91° East 150 173 5,500  Descending Indianapolis Center
Fri 05:13:41 PM 39.6703 -85.2894 95° East 151 174 5,600 70 Climbing Indianapolis Center
Fri 05:14:11 PM 39.6694 -85.2558 92° East 147 169 5,600 -97 Level Indianapolis Center
Fri 05:14:43 PM 39.6664 -85.2386 103° East 147 169 5,500  Descending Indianapolis Center
Fri 05:15:45 PM 39.6606 -85.1744 97° East 148 170 5,600 63 Climbing Indianapolis Center
Fri 05:16:18 PM 39.6586 -85.1472 95° East 148 170 5,600 -64 Level Indianapolis Center
Fri 05:17:19 PM 39.6525 -85.0917 98° East 147 169 5,500 -66 Descending Indianapolis Center
Fri 05:17:49 PM 39.6519 -85.0697 92° East 146 168 5,500 65 Level Indianapolis Center
Fri 05:18:51 PM 39.6478 -85.0189 96° East 144 166 5,600 48 Climbing Indianapolis Center
Fri 05:19:53 PM 39.6433 -84.9675 96° East 144 166 5,600 -48 Level Indianapolis Center
Fri 05:20:55 PM 39.6383 -84.9061 96° East 143 165 5,500  Descending Indianapolis Center
Fri 05:21:57 PM 39.6336 -84.8572 97° East 146 168 5,600 -97 Climbing Indianapolis Center
Fri 05:22:59 PM 39.6294 -84.8036 96° East 148 170 5,300 -387 Descending Indianapolis Center
Fri 05:24:01 PM 39.6244 -84.7436 96° East 161 185 4,800 -516 Descending Indianapolis Center
Fri 05:24:32 PM 39.6219 -84.7072 95° East 169 194 4,500 -484 Descending Indianapolis Center
Fri 05:25:03 PM 39.6197 -84.6736 95° East 166 191 4,300 -492 Descending Indianapolis Center
Fri 05:25:33 PM 39.6183 -84.6439 93° East 167 192 4,000 -476 Descending Indianapolis Center
Fri 05:26:06 PM 39.6167 -84.6122 94° East 167 192 3,800 -253 Descending Indianapolis Center
Fri 05:27:08 PM 39.6139 -84.5544 94° East 164 189 3,600 -145 Descending Indianapolis Center
Fri 05:28:10 PM 39.6117 -84.5003 93° East 156 180 3,500 -48 Descending Indianapolis Center
Fri 05:29:12 PM 39.6092 -84.4486 94° East 149 171 3,500 48 Level Indianapolis Center
Fri 05:30:14 PM 39.6072 -84.3911 92° East 147 169 3,600 97 Climbing Indianapolis Center

Login

Don't have an account? Register now (free) for customized features, flight alerts, and more!